sensor_id;sensor_type;location;lat;lon;timestamp;P1;durP1;ratioP1;P2;durP2;ratioP2
75700;SDS011;64321;48.796;44.740;2023-03-14T00:01:55;2.17;;;0.75;;
75700;SDS011;64321;48.796;44.740;2023-03-14T00:06:57;2.95;;;1.20;;
75700;SDS011;64321;48.796;44.740;2023-03-14T00:12:18;2.20;;;1.15;;
75700;SDS011;64321;48.796;44.740;2023-03-14T00:17:39;2.80;;;1.08;;
75700;SDS011;64321;48.796;44.740;2023-03-14T00:23:00;2.92;;;1.23;;
75700;SDS011;64321;48.796;44.740;2023-03-14T00:28:20;2.72;;;0.73;;
75700;SDS011;64321;48.796;44.740;2023-03-14T00:33:42;3.38;;;0.95;;
75700;SDS011;64321;48.796;44.740;2023-03-14T00:39:03;5.63;;;1.63;;
75700;SDS011;64321;48.796;44.740;2023-03-14T00:44:24;4.65;;;1.42;;
75700;SDS011;64321;48.796;44.740;2023-03-14T00:49:45;3.58;;;1.45;;
75700;SDS011;64321;48.796;44.740;2023-03-14T00:55:06;4.32;;;1.98;;
75700;SDS011;64321;48.796;44.740;2023-03-14T01:00:08;4.03;;;1.80;;
75700;SDS011;64321;48.796;44.740;2023-03-14T01:05:13;3.22;;;1.33;;
75700;SDS011;64321;48.796;44.740;2023-03-14T01:10:16;4.60;;;1.33;;
75700;SDS011;64321;48.796;44.740;2023-03-14T01:15:18;4.35;;;1.70;;
75700;SDS011;64321;48.796;44.740;2023-03-14T01:20:21;2.97;;;1.10;;
75700;SDS011;64321;48.796;44.740;2023-03-14T01:25:41;4.43;;;1.42;;
75700;SDS011;64321;48.796;44.740;2023-03-14T01:31:04;4.43;;;2.05;;
75700;SDS011;64321;48.796;44.740;2023-03-14T01:36:07;6.80;;;2.60;;
75700;SDS011;64321;48.796;44.740;2023-03-14T01:41:12;5.10;;;2.15;;
75700;SDS011;64321;48.796;44.740;2023-03-14T01:56:25;4.53;;;2.17;;
75700;SDS011;64321;48.796;44.740;2023-03-14T02:01:27;7.60;;;2.53;;
75700;SDS011;64321;48.796;44.740;2023-03-14T02:06:35;6.47;;;2.55;;
75700;SDS011;64321;48.796;44.740;2023-03-14T02:11:41;5.43;;;2.38;;
75700;SDS011;64321;48.796;44.740;2023-03-14T02:17:01;7.45;;;2.42;;
75700;SDS011;64321;48.796;44.740;2023-03-14T02:22:24;5.05;;;1.85;;
75700;SDS011;64321;48.796;44.740;2023-03-14T02:27:32;4.45;;;1.27;;
75700;SDS011;64321;48.796;44.740;2023-03-14T02:32:36;4.60;;;2.08;;
75700;SDS011;64321;48.796;44.740;2023-03-14T02:38:02;5.20;;;1.88;;
75700;SDS011;64321;48.796;44.740;2023-03-14T02:43:07;3.92;;;1.55;;
75700;SDS011;64321;48.796;44.740;2023-03-14T02:48:22;3.85;;;1.60;;
75700;SDS011;64321;48.796;44.740;2023-03-14T02:53:27;6.53;;;1.98;;
75700;SDS011;64321;48.796;44.740;2023-03-14T02:58:34;4.38;;;1.88;;
75700;SDS011;64321;48.796;44.740;2023-03-14T03:03:45;8.70;;;2.00;;
75700;SDS011;64321;48.796;44.740;2023-03-14T03:08:48;5.13;;;2.10;;
75700;SDS011;64321;48.796;44.740;2023-03-14T03:13:50;4.30;;;1.67;;
75700;SDS011;64321;48.796;44.740;2023-03-14T03:18:54;8.88;;;2.00;;
75700;SDS011;64321;48.796;44.740;2023-03-14T03:23:56;7.85;;;2.70;;
75700;SDS011;64321;48.796;44.740;2023-03-14T03:28:58;9.68;;;2.30;;
75700;SDS011;64321;48.796;44.740;2023-03-14T03:34:01;13.63;;;3.60;;
75700;SDS011;64321;48.796;44.740;2023-03-14T03:39:03;10.35;;;2.13;;
75700;SDS011;64321;48.796;44.740;2023-03-14T03:44:06;12.45;;;2.50;;
75700;SDS011;64321;48.796;44.740;2023-03-14T03:49:08;8.90;;;2.03;;
75700;SDS011;64321;48.796;44.740;2023-03-14T03:54:10;13.00;;;2.20;;
75700;SDS011;64321;48.796;44.740;2023-03-14T03:59:13;8.35;;;2.20;;
75700;SDS011;64321;48.796;44.740;2023-03-14T04:04:16;6.15;;;2.20;;
75700;SDS011;64321;48.796;44.740;2023-03-14T04:09:18;6.25;;;2.10;;
75700;SDS011;64321;48.796;44.740;2023-03-14T04:14:40;6.80;;;3.03;;
75700;SDS011;64321;48.796;44.740;2023-03-14T04:19:50;8.77;;;3.30;;
75700;SDS011;64321;48.796;44.740;2023-03-14T04:25:00;8.70;;;3.15;;
75700;SDS011;64321;48.796;44.740;2023-03-14T04:30:08;7.88;;;3.13;;
75700;SDS011;64321;48.796;44.740;2023-03-14T04:35:21;8.15;;;3.25;;
75700;SDS011;64321;48.796;44.740;2023-03-14T04:40:27;9.02;;;3.35;;
75700;SDS011;64321;48.796;44.740;2023-03-14T04:45:35;15.35;;;3.28;;
75700;SDS011;64321;48.796;44.740;2023-03-14T04:50:40;10.85;;;2.85;;
75700;SDS011;64321;48.796;44.740;2023-03-14T04:55:53;7.93;;;3.10;;
75700;SDS011;64321;48.796;44.740;2023-03-14T05:01:01;7.63;;;3.20;;
75700;SDS011;64321;48.796;44.740;2023-03-14T05:06:29;6.28;;;3.55;;
75700;SDS011;64321;48.796;44.740;2023-03-14T05:11:43;10.63;;;3.88;;
75700;SDS011;64321;48.796;44.740;2023-03-14T05:17:08;11.60;;;4.03;;
75700;SDS011;64321;48.796;44.740;2023-03-14T05:22:48;12.07;;;4.53;;
75700;SDS011;64321;48.796;44.740;2023-03-14T05:28:01;10.32;;;5.00;;
75700;SDS011;64321;48.796;44.740;2023-03-14T05:33:29;14.48;;;5.53;;
75700;SDS011;64321;48.796;44.740;2023-03-14T05:38:49;19.38;;;5.90;;
75700;SDS011;64321;48.796;44.740;2023-03-14T05:44:12;19.65;;;6.82;;
75700;SDS011;64321;48.796;44.740;2023-03-14T05:49:46;25.17;;;6.60;;
75700;SDS011;64321;48.796;44.740;2023-03-14T05:55:21;16.25;;;4.82;;
75700;SDS011;64321;48.796;44.740;2023-03-14T06:00:46;11.05;;;4.72;;
75700;SDS011;64321;48.796;44.740;2023-03-14T06:06:08;13.65;;;3.85;;
75700;SDS011;64321;48.796;44.740;2023-03-14T06:11:11;8.00;;;1.00;;
75700;SDS011;64321;48.796;44.740;2023-03-14T06:16:14;6.68;;;0.82;;
75700;SDS011;64321;48.796;44.740;2023-03-14T06:21:17;2.75;;;0.82;;
75700;SDS011;64321;48.796;44.740;2023-03-14T06:26:22;2.47;;;0.95;;
75700;SDS011;64321;48.796;44.740;2023-03-14T06:31:25;2.88;;;0.60;;
75700;SDS011;64321;48.796;44.740;2023-03-14T06:36:33;5.93;;;0.70;;
75700;SDS011;64321;48.796;44.740;2023-03-14T06:41:36;4.25;;;0.68;;
75700;SDS011;64321;48.796;44.740;2023-03-14T06:46:38;5.13;;;1.00;;
75700;SDS011;64321;48.796;44.740;2023-03-14T06:51:41;4.05;;;0.82;;
75700;SDS011;64321;48.796;44.740;2023-03-14T06:56:45;6.40;;;1.98;;
75700;SDS011;64321;48.796;44.740;2023-03-14T07:01:48;4.75;;;1.33;;
75700;SDS011;64321;48.796;44.740;2023-03-14T07:06:52;3.78;;;1.23;;
75700;SDS011;64321;48.796;44.740;2023-03-14T07:11:55;6.80;;;1.60;;
75700;SDS011;64321;48.796;44.740;2023-03-14T07:16:57;5.93;;;1.63;;
75700;SDS011;64321;48.796;44.740;2023-03-14T07:22:00;9.50;;;1.73;;
75700;SDS011;64321;48.796;44.740;2023-03-14T07:27:03;7.13;;;1.80;;
75700;SDS011;64321;48.796;44.740;2023-03-14T07:32:05;5.78;;;1.42;;
75700;SDS011;64321;48.796;44.740;2023-03-14T07:37:08;9.70;;;3.28;;
75700;SDS011;64321;48.796;44.740;2023-03-14T07:42:11;10.82;;;3.15;;
75700;SDS011;64321;48.796;44.740;2023-03-14T07:47:42;14.63;;;2.72;;
75700;SDS011;64321;48.796;44.740;2023-03-14T07:52:44;6.90;;;2.17;;
75700;SDS011;64321;48.796;44.740;2023-03-14T07:57:46;7.65;;;1.70;;
75700;SDS011;64321;48.796;44.740;2023-03-14T08:02:48;10.13;;;2.08;;
75700;SDS011;64321;48.796;44.740;2023-03-14T08:07:50;7.60;;;1.35;;
75700;SDS011;64321;48.796;44.740;2023-03-14T08:12:56;10.20;;;1.35;;
75700;SDS011;64321;48.796;44.740;2023-03-14T08:17:58;8.43;;;1.75;;
75700;SDS011;64321;48.796;44.740;2023-03-14T08:23:01;3.85;;;0.95;;
75700;SDS011;64321;48.796;44.740;2023-03-14T08:28:03;8.30;;;2.08;;
75700;SDS011;64321;48.796;44.740;2023-03-14T08:33:06;4.25;;;0.88;;
75700;SDS011;64321;48.796;44.740;2023-03-14T08:38:10;3.65;;;0.93;;
75700;SDS011;64321;48.796;44.740;2023-03-14T08:43:12;3.55;;;1.00;;
75700;SDS011;64321;48.796;44.740;2023-03-14T08:48:15;6.07;;;0.85;;
75700;SDS011;64321;48.796;44.740;2023-03-14T08:53:17;6.47;;;1.63;;
75700;SDS011;64321;48.796;44.740;2023-03-14T08:58:20;6.13;;;1.05;;
75700;SDS011;64321;48.796;44.740;2023-03-14T09:03:24;7.18;;;1.27;;
75700;SDS011;64321;48.796;44.740;2023-03-14T09:08:27;1.90;;;0.45;;
75700;SDS011;64321;48.796;44.740;2023-03-14T09:13:29;4.13;;;1.02;;
75700;SDS011;64321;48.796;44.740;2023-03-14T09:18:31;5.03;;;0.77;;
75700;SDS011;64321;48.796;44.740;2023-03-14T09:23:33;1.35;;;0.50;;
75700;SDS011;64321;48.796;44.740;2023-03-14T09:28:36;1.85;;;0.55;;
75700;SDS011;64321;48.796;44.740;2023-03-14T09:33:39;2.92;;;0.63;;
75700;SDS011;64321;48.796;44.740;2023-03-14T09:38:41;5.97;;;0.90;;
75700;SDS011;64321;48.796;44.740;2023-03-14T09:43:43;7.15;;;0.82;;
75700;SDS011;64321;48.796;44.740;2023-03-14T09:48:47;5.40;;;0.82;;
75700;SDS011;64321;48.796;44.740;2023-03-14T09:53:49;3.33;;;1.05;;
75700;SDS011;64321;48.796;44.740;2023-03-14T09:58:53;2.75;;;0.80;;
75700;SDS011;64321;48.796;44.740;2023-03-14T10:03:58;4.28;;;1.10;;
75700;SDS011;64321;48.796;44.740;2023-03-14T10:09:01;2.72;;;0.55;;
75700;SDS011;64321;48.796;44.740;2023-03-14T10:19:09;3.15;;;0.50;;
75700;SDS011;64321;48.796;44.740;2023-03-14T10:29:19;2.30;;;0.38;;
75700;SDS011;64321;48.796;44.740;2023-03-14T10:34:24;3.55;;;0.98;;
75700;SDS011;64321;48.796;44.740;2023-03-14T10:39:29;1.30;;;0.52;;
75700;SDS011;64321;48.796;44.740;2023-03-14T10:44:32;4.45;;;0.60;;
75700;SDS011;64321;48.796;44.740;2023-03-14T10:49:36;6.05;;;0.75;;
75700;SDS011;64321;48.796;44.740;2023-03-14T10:54:40;3.92;;;1.00;;
75700;SDS011;64321;48.796;44.740;2023-03-14T10:59:42;8.85;;;2.53;;
75700;SDS011;64321;48.796;44.740;2023-03-14T11:05:08;3.00;;;0.55;;
75700;SDS011;64321;48.796;44.740;2023-03-14T11:15:40;7.57;;;1.35;;
75700;SDS011;64321;48.796;44.740;2023-03-14T11:20:53;3.22;;;1.15;;
75700;SDS011;64321;48.796;44.740;2023-03-14T11:36:09;4.78;;;0.85;;
75700;SDS011;64321;48.796;44.740;2023-03-14T11:41:14;5.47;;;0.82;;
75700;SDS011;64321;48.796;44.740;2023-03-14T11:46:20;3.42;;;1.15;;
75700;SDS011;64321;48.796;44.740;2023-03-14T11:51:25;2.65;;;1.17;;
75700;SDS011;64321;48.796;44.740;2023-03-14T12:06:59;2.35;;;0.63;;
75700;SDS011;64321;48.796;44.740;2023-03-14T12:12:04;6.05;;;1.70;;
75700;SDS011;64321;48.796;44.740;2023-03-14T12:17:53;1.48;;;1.15;;
75700;SDS011;64321;48.796;44.740;2023-03-14T12:22:30;6.60;;;1.08;;
75700;SDS011;64321;48.796;44.740;2023-03-14T12:33:10;4.13;;;0.80;;
75700;SDS011;64321;48.796;44.740;2023-03-14T12:38:16;2.67;;;1.30;;
75700;SDS011;64321;48.796;44.740;2023-03-14T12:43:28;3.33;;;1.70;;
75700;SDS011;64321;48.796;44.740;2023-03-14T12:48:30;2.58;;;1.35;;
75700;SDS011;64321;48.796;44.740;2023-03-14T13:08:55;4.07;;;1.05;;
75700;SDS011;64321;48.796;44.740;2023-03-14T13:13:58;3.88;;;1.52;;
75700;SDS011;64321;48.796;44.740;2023-03-14T13:19:02;4.55;;;1.58;;
75700;SDS011;64321;48.796;44.740;2023-03-14T13:24:06;3.35;;;0.90;;
75700;SDS011;64321;48.796;44.740;2023-03-14T13:34:17;10.35;;;1.77;;
75700;SDS011;64321;48.796;44.740;2023-03-14T13:39:21;4.78;;;1.70;;
75700;SDS011;64321;48.796;44.740;2023-03-14T13:44:30;4.70;;;1.48;;
75700;SDS011;64321;48.796;44.740;2023-03-14T13:54:38;3.60;;;1.17;;
75700;SDS011;64321;48.796;44.740;2023-03-14T13:59:40;2.40;;;1.33;;
75700;SDS011;64321;48.796;44.740;2023-03-14T14:04:43;8.13;;;1.50;;
75700;SDS011;64321;48.796;44.740;2023-03-14T14:09:46;5.43;;;1.77;;
75700;SDS011;64321;48.796;44.740;2023-03-14T14:14:52;3.25;;;1.25;;
75700;SDS011;64321;48.796;44.740;2023-03-14T14:19:58;4.88;;;1.27;;
75700;SDS011;64321;48.796;44.740;2023-03-14T14:25:01;5.22;;;2.20;;
75700;SDS011;64321;48.796;44.740;2023-03-14T14:30:05;3.63;;;1.33;;
75700;SDS011;64321;48.796;44.740;2023-03-14T14:35:09;3.83;;;1.15;;
75700;SDS011;64321;48.796;44.740;2023-03-14T14:45:21;13.70;;;2.05;;
75700;SDS011;64321;48.796;44.740;2023-03-14T14:55:39;10.70;;;1.90;;
75700;SDS011;64321;48.796;44.740;2023-03-14T15:00:49;6.63;;;1.75;;
75700;SDS011;64321;48.796;44.740;2023-03-14T15:05:52;6.20;;;0.52;;
75700;SDS011;64321;48.796;44.740;2023-03-14T15:10:55;8.52;;;1.05;;
75700;SDS011;64321;48.796;44.740;2023-03-14T15:15:57;7.57;;;0.70;;
75700;SDS011;64321;48.796;44.740;2023-03-14T15:21:00;10.07;;;1.00;;
75700;SDS011;64321;48.796;44.740;2023-03-14T15:26:02;12.05;;;1.58;;
75700;SDS011;64321;48.796;44.740;2023-03-14T15:31:05;11.38;;;1.75;;
75700;SDS011;64321;48.796;44.740;2023-03-14T15:36:15;10.07;;;1.45;;
75700;SDS011;64321;48.796;44.740;2023-03-14T15:41:18;9.75;;;1.60;;
75700;SDS011;64321;48.796;44.740;2023-03-14T15:46:22;11.35;;;1.35;;
75700;SDS011;64321;48.796;44.740;2023-03-14T15:51:24;11.82;;;1.52;;
75700;SDS011;64321;48.796;44.740;2023-03-14T15:56:26;5.38;;;1.15;;
75700;SDS011;64321;48.796;44.740;2023-03-14T16:01:33;7.30;;;1.55;;
75700;SDS011;64321;48.796;44.740;2023-03-14T16:06:36;7.13;;;1.40;;
75700;SDS011;64321;48.796;44.740;2023-03-14T16:11:38;8.18;;;1.02;;
75700;SDS011;64321;48.796;44.740;2023-03-14T16:16:41;10.35;;;1.50;;
75700;SDS011;64321;48.796;44.740;2023-03-14T16:21:43;6.40;;;1.55;;
75700;SDS011;64321;48.796;44.740;2023-03-14T16:26:46;8.82;;;1.55;;
75700;SDS011;64321;48.796;44.740;2023-03-14T16:31:49;7.43;;;1.25;;
75700;SDS011;64321;48.796;44.740;2023-03-14T16:36:51;6.88;;;0.85;;
75700;SDS011;64321;48.796;44.740;2023-03-14T16:41:53;8.82;;;1.13;;
75700;SDS011;64321;48.796;44.740;2023-03-14T16:46:59;12.40;;;1.25;;
75700;SDS011;64321;48.796;44.740;2023-03-14T16:52:01;7.13;;;0.88;;
75700;SDS011;64321;48.796;44.740;2023-03-14T16:57:04;5.45;;;0.98;;
75700;SDS011;64321;48.796;44.740;2023-03-14T17:02:07;4.18;;;0.73;;
75700;SDS011;64321;48.796;44.740;2023-03-14T17:07:10;5.70;;;0.65;;
75700;SDS011;64321;48.796;44.740;2023-03-14T17:12:12;6.05;;;0.73;;
75700;SDS011;64321;48.796;44.740;2023-03-14T17:17:14;9.95;;;1.92;;
75700;SDS011;64321;48.796;44.740;2023-03-14T17:22:16;8.48;;;1.83;;
75700;SDS011;64321;48.796;44.740;2023-03-14T17:27:26;11.63;;;1.90;;
75700;SDS011;64321;48.796;44.740;2023-03-14T17:32:28;10.65;;;2.03;;
75700;SDS011;64321;48.796;44.740;2023-03-14T17:37:30;10.52;;;1.75;;
75700;SDS011;64321;48.796;44.740;2023-03-14T17:42:33;5.35;;;1.25;;
75700;SDS011;64321;48.796;44.740;2023-03-14T17:47:35;5.28;;;1.20;;
75700;SDS011;64321;48.796;44.740;2023-03-14T17:52:38;8.30;;;1.77;;
75700;SDS011;64321;48.796;44.740;2023-03-14T17:57:40;8.15;;;1.33;;
75700;SDS011;64321;48.796;44.740;2023-03-14T18:02:45;8.02;;;1.40;;
75700;SDS011;64321;48.796;44.740;2023-03-14T18:07:47;7.13;;;1.13;;
75700;SDS011;64321;48.796;44.740;2023-03-14T18:12:49;6.07;;;1.25;;
75700;SDS011;64321;48.796;44.740;2023-03-14T18:17:52;6.38;;;0.90;;
75700;SDS011;64321;48.796;44.740;2023-03-14T18:22:54;7.10;;;0.98;;
75700;SDS011;64321;48.796;44.740;2023-03-14T18:27:56;9.27;;;1.88;;
75700;SDS011;64321;48.796;44.740;2023-03-14T18:32:59;6.10;;;0.85;;
75700;SDS011;64321;48.796;44.740;2023-03-14T18:38:02;4.13;;;1.13;;
75700;SDS011;64321;48.796;44.740;2023-03-14T18:43:04;3.22;;;0.68;;
75700;SDS011;64321;48.796;44.740;2023-03-14T18:48:09;5.47;;;1.30;;
75700;SDS011;64321;48.796;44.740;2023-03-14T18:53:11;4.05;;;0.52;;
75700;SDS011;64321;48.796;44.740;2023-03-14T18:58:14;5.85;;;0.60;;
75700;SDS011;64321;48.796;44.740;2023-03-14T19:03:16;4.95;;;0.77;;
75700;SDS011;64321;48.796;44.740;2023-03-14T19:08:20;3.03;;;1.00;;
75700;SDS011;64321;48.796;44.740;2023-03-14T19:13:24;3.40;;;0.43;;
75700;SDS011;64321;48.796;44.740;2023-03-14T19:18:28;4.25;;;0.63;;
75700;SDS011;64321;48.796;44.740;2023-03-14T19:23:32;4.53;;;1.02;;
75700;SDS011;64321;48.796;44.740;2023-03-14T19:28:34;4.20;;;0.52;;
75700;SDS011;64321;48.796;44.740;2023-03-14T19:33:37;3.03;;;0.57;;
75700;SDS011;64321;48.796;44.740;2023-03-14T19:38:39;5.85;;;0.70;;
75700;SDS011;64321;48.796;44.740;2023-03-14T19:43:55;3.50;;;0.47;;
75700;SDS011;64321;48.796;44.740;2023-03-14T19:48:57;2.10;;;0.43;;
75700;SDS011;64321;48.796;44.740;2023-03-14T19:54:00;3.10;;;0.52;;
75700;SDS011;64321;48.796;44.740;2023-03-14T19:59:06;2.17;;;0.65;;
75700;SDS011;64321;48.796;44.740;2023-03-14T20:04:08;1.08;;;0.43;;
75700;SDS011;64321;48.796;44.740;2023-03-14T20:09:11;5.28;;;0.95;;
75700;SDS011;64321;48.796;44.740;2023-03-14T20:14:13;2.78;;;0.52;;
75700;SDS011;64321;48.796;44.740;2023-03-14T20:19:17;3.22;;;0.52;;
75700;SDS011;64321;48.796;44.740;2023-03-14T20:24:19;1.77;;;0.63;;
75700;SDS011;64321;48.796;44.740;2023-03-14T20:29:21;1.88;;;0.50;;
75700;SDS011;64321;48.796;44.740;2023-03-14T20:34:23;2.08;;;0.63;;
75700;SDS011;64321;48.796;44.740;2023-03-14T20:39:26;1.52;;;0.50;;
75700;SDS011;64321;48.796;44.740;2023-03-14T20:44:28;1.80;;;0.57;;
75700;SDS011;64321;48.796;44.740;2023-03-14T20:49:31;2.00;;;0.50;;
75700;SDS011;64321;48.796;44.740;2023-03-14T20:54:34;2.75;;;0.88;;
75700;SDS011;64321;48.796;44.740;2023-03-14T20:59:36;1.65;;;0.43;;
75700;SDS011;64321;48.796;44.740;2023-03-14T21:04:39;2.45;;;0.73;;
75700;SDS011;64321;48.796;44.740;2023-03-14T21:09:41;1.83;;;0.45;;
75700;SDS011;64321;48.796;44.740;2023-03-14T21:14:44;1.45;;;0.63;;
75700;SDS011;64321;48.796;44.740;2023-03-14T21:19:46;1.38;;;0.52;;
75700;SDS011;64321;48.796;44.740;2023-03-14T21:24:48;1.65;;;0.43;;
75700;SDS011;64321;48.796;44.740;2023-03-14T21:29:51;2.40;;;0.63;;
75700;SDS011;64321;48.796;44.740;2023-03-14T21:34:53;2.70;;;0.63;;
75700;SDS011;64321;48.796;44.740;2023-03-14T21:39:55;3.65;;;0.52;;
75700;SDS011;64321;48.796;44.740;2023-03-14T21:44:57;2.50;;;0.80;;
75700;SDS011;64321;48.796;44.740;2023-03-14T21:50:00;1.70;;;0.70;;
75700;SDS011;64321;48.796;44.740;2023-03-14T21:55:03;2.45;;;0.75;;
75700;SDS011;64321;48.796;44.740;2023-03-14T22:00:05;2.55;;;0.98;;
75700;SDS011;64321;48.796;44.740;2023-03-14T22:05:09;1.73;;;0.47;;
75700;SDS011;64321;48.796;44.740;2023-03-14T22:10:14;1.65;;;0.57;;
75700;SDS011;64321;48.796;44.740;2023-03-14T22:15:17;1.27;;;0.50;;
75700;SDS011;64321;48.796;44.740;2023-03-14T22:20:19;1.45;;;0.43;;
75700;SDS011;64321;48.796;44.740;2023-03-14T22:25:21;2.97;;;0.55;;
75700;SDS011;64321;48.796;44.740;2023-03-14T22:30:23;1.45;;;0.43;;
75700;SDS011;64321;48.796;44.740;2023-03-14T22:35:26;1.30;;;0.32;;
75700;SDS011;64321;48.796;44.740;2023-03-14T22:40:28;0.80;;;0.38;;
75700;SDS011;64321;48.796;44.740;2023-03-14T22:45:30;1.15;;;0.43;;
75700;SDS011;64321;48.796;44.740;2023-03-14T22:50:34;3.28;;;0.43;;
75700;SDS011;64321;48.796;44.740;2023-03-14T22:55:38;3.47;;;0.47;;
75700;SDS011;64321;48.796;44.740;2023-03-14T23:00:41;1.13;;;0.30;;
75700;SDS011;64321;48.796;44.740;2023-03-14T23:05:43;1.20;;;0.73;;
75700;SDS011;64321;48.796;44.740;2023-03-14T23:10:45;1.63;;;0.47;;
75700;SDS011;64321;48.796;44.740;2023-03-14T23:15:48;1.77;;;0.40;;
75700;SDS011;64321;48.796;44.740;2023-03-14T23:20:50;3.45;;;0.43;;
75700;SDS011;64321;48.796;44.740;2023-03-14T23:25:52;1.30;;;0.30;;
75700;SDS011;64321;48.796;44.740;2023-03-14T23:30:55;1.27;;;0.43;;
75700;SDS011;64321;48.796;44.740;2023-03-14T23:35:57;0.93;;;0.43;;
75700;SDS011;64321;48.796;44.740;2023-03-14T23:41:00;1.02;;;0.30;;
75700;SDS011;64321;48.796;44.740;2023-03-14T23:46:02;1.42;;;0.65;;
75700;SDS011;64321;48.796;44.740;2023-03-14T23:51:05;0.60;;;0.30;;
75700;SDS011;64321;48.796;44.740;2023-03-14T23:56:08;1.15;;;0.47;;
